Time;durP1;ratioP1;P1;durP2;ratioP2;P2;SDS_P1;SDS_P2;PMS_P1;PMS_P2;Temp;Humidity;BMP_temperature;BMP_pressure;BME280_temperature;BME280_humidity;BME280_pressure;Samples;Min_cycle;Max_cycle;Signal;HPM_P1;HPM_P2
2023/04/26 00:00:20;;;;;;;12.63;6.82;;;8.50;99.90;;;;;;4976128;28;20030;-75
2023/04/26 00:02:47;;;;;;;11.95;6.30;;;8.50;99.90;;;;;;4990830;28;20034;-75
2023/04/26 00:05:13;;;;;;;9.10;5.80;;;8.40;99.90;;;;;;4976348;28;20084;-75
2023/04/26 00:07:39;;;;;;;11.13;6.40;;;8.50;99.90;;;;;;4975461;28;20416;-75
2023/04/26 00:10:07;;;;;;;11.40;6.32;;;8.50;99.90;;;;;;4990792;28;20030;-75
2023/04/26 00:12:32;;;;;;;11.45;5.70;;;8.50;99.90;;;;;;4973622;28;20050;-75
2023/04/26 00:14:58;;;;;;;8.95;5.07;;;8.40;99.90;;;;;;4973857;28;20050;-75
2023/04/26 00:17:24;;;;;;;8.40;5.05;;;8.30;99.90;;;;;;4974471;28;20189;-75
2023/04/26 00:19:49;;;;;;;8.52;4.63;;;8.20;99.90;;;;;;4975770;28;20030;-75
2023/04/26 00:22:15;;;;;;;9.48;4.70;;;8.20;99.90;;;;;;4974429;28;20081;-75
2023/04/26 00:24:42;;;;;;;7.40;4.47;;;8.10;99.90;;;;;;4973871;28;20030;-75
2023/04/26 00:27:08;;;;;;;7.35;4.55;;;8.10;99.90;;;;;;4974658;28;20067;-75
2023/04/26 00:29:34;;;;;;;8.98;5.05;;;8.10;99.90;;;;;;4975112;28;20126;-75
2023/04/26 00:31:59;;;;;;;7.15;4.25;;;8.10;99.90;;;;;;4975820;28;20432;-75
2023/04/26 00:34:34;;;;;;;7.35;4.10;;;8.10;99.90;;;;;;4974105;28;20038;-74
2023/04/26 00:37:01;;;;;;;7.80;4.82;;;8.10;99.90;;;;;;4974718;28;20031;-74
2023/04/26 00:39:26;;;;;;;7.47;4.47;;;8.10;99.90;;;;;;4973832;28;20027;-74
2023/04/26 00:41:52;;;;;;;10.43;4.68;;;8.00;99.90;;;;;;4974427;28;20121;-74
2023/04/26 00:44:18;;;;;;;8.93;5.13;;;8.00;99.90;;;;;;4975646;28;20421;-74
2023/04/26 00:46:43;;;;;;;10.10;5.13;;;7.90;99.90;;;;;;4974960;28;20210;-74
2023/04/26 00:49:16;;;;;;;8.35;5.07;;;8.00;99.90;;;;;;4975646;28;20051;-75
2023/04/26 00:51:46;;;;;;;8.50;4.85;;;7.90;99.90;;;;;;4973579;28;20051;-75
2023/04/26 00:54:12;;;;;;;7.00;4.40;;;7.90;99.90;;;;;;4974081;28;20035;-75
2023/04/26 00:56:39;;;;;;;8.98;4.25;;;7.90;99.90;;;;;;4973339;28;20026;-77
2023/04/26 00:59:05;;;;;;;6.93;4.60;;;7.90;99.90;;;;;;4975229;28;20031;-77
2023/04/26 01:01:31;;;;;;;9.18;4.50;;;7.90;99.90;;;;;;4973339;28;20464;-77
2023/04/26 01:03:57;;;;;;;6.43;4.40;;;7.80;99.90;;;;;;4974228;28;20034;-77
2023/04/26 01:06:23;;;;;;;9.43;4.40;;;7.80;99.90;;;;;;4974039;28;20085;-77
2023/04/26 01:08:56;;;;;;;8.73;4.57;;;7.80;99.90;;;;;;4989527;28;20030;-77
2023/04/26 01:11:22;;;;;;;11.07;5.05;;;7.70;99.90;;;;;;4973939;28;20468;-77
2023/04/26 01:13:50;;;;;;;8.13;4.45;;;7.60;99.90;;;;;;4974572;28;20062;-77
2023/04/26 01:16:18;;;;;;;8.23;4.63;;;7.60;99.90;;;;;;4990015;28;20027;-77
2023/04/26 01:18:50;;;;;;;7.03;4.35;;;7.50;99.90;;;;;;4974601;28;20030;-77
2023/04/26 01:21:21;;;;;;;8.23;4.55;;;7.50;99.90;;;;;;4974968;28;20030;-77
2023/04/26 01:23:47;;;;;;;8.30;4.40;;;7.50;99.90;;;;;;4974196;28;20051;-77
2023/04/26 01:26:13;;;;;;;13.85;4.97;;;7.50;99.90;;;;;;4974842;28;20043;-77
2023/04/26 01:28:38;;;;;;;8.00;4.80;;;7.50;99.90;;;;;;4988907;28;20034;-77
2023/04/26 01:31:04;;;;;;;10.57;4.82;;;7.50;99.90;;;;;;4973443;28;20494;-77
2023/04/26 01:33:30;;;;;;;8.63;3.80;;;7.40;99.90;;;;;;4972879;28;20122;-77
2023/04/26 01:35:55;;;;;;;8.23;4.28;;;7.20;99.90;;;;;;4989650;28;20029;-77
2023/04/26 01:38:21;;;;;;;6.90;4.55;;;7.20;99.90;;;;;;4974578;28;20023;-77
2023/04/26 01:40:46;;;;;;;7.72;4.70;;;7.10;99.90;;;;;;4972699;28;20093;-77
2023/04/26 01:43:14;;;;;;;8.27;5.03;;;7.10;99.90;;;;;;4973242;28;20042;-77
2023/04/26 01:45:40;;;;;;;9.57;5.32;;;7.00;99.90;;;;;;4973867;28;20130;-77
2023/04/26 01:48:06;;;;;;;10.30;5.22;;;7.00;99.90;;;;;;4972873;28;20504;-76
2023/04/26 01:50:32;;;;;;;8.90;5.13;;;7.00;99.90;;;;;;4972401;28;20026;-77
2023/04/26 01:52:57;;;;;;;10.10;5.40;;;6.90;99.90;;;;;;4974308;28;20026;-76
2023/04/26 01:55:23;;;;;;;8.95;5.25;;;6.90;99.90;;;;;;4989211;28;20181;-77
2023/04/26 01:57:48;;;;;;;9.40;5.35;;;6.90;99.90;;;;;;4973629;28;20080;-77
2023/04/26 02:00:14;;;;;;;9.82;5.28;;;6.90;99.90;;;;;;4974212;28;20031;-77
2023/04/26 02:02:40;;;;;;;11.20;5.50;;;6.90;99.90;;;;;;4973706;28;20140;-77
2023/04/26 02:05:08;;;;;;;9.48;5.78;;;6.90;99.90;;;;;;4972949;28;20477;-76
2023/04/26 02:07:33;;;;;;;14.95;6.32;;;7.00;99.90;;;;;;4972037;28;20031;-77
2023/04/26 02:09:59;;;;;;;14.07;5.50;;;6.90;99.90;;;;;;4974005;28;20030;-77
2023/04/26 02:12:24;;;;;;;9.85;5.45;;;6.80;99.90;;;;;;4974112;28;20039;-77
2023/04/26 02:14:50;;;;;;;10.82;5.38;;;6.80;99.90;;;;;;4972072;28;20135;-77
2023/04/26 02:17:16;;;;;;;9.68;5.57;;;6.70;99.90;;;;;;4973821;28;20027;-77
2023/04/26 02:19:41;;;;;;;10.77;5.43;;;6.70;99.90;;;;;;4972037;28;20022;-76
2023/04/26 02:22:07;;;;;;;10.98;5.57;;;6.70;99.90;;;;;;4973665;28;20118;-77
2023/04/26 02:24:33;;;;;;;10.38;4.85;;;6.70;99.90;;;;;;4973149;28;20033;-76
2023/04/26 02:27:02;;;;;;;8.88;5.43;;;6.70;99.90;;;;;;4972816;28;20023;-77
2023/04/26 02:29:28;;;;;;;8.70;5.15;;;6.70;99.90;;;;;;4973742;28;20030;-77
2023/04/26 02:31:54;;;;;;;11.45;5.13;;;6.60;99.90;;;;;;4972994;28;20039;-77
2023/04/26 02:34:19;;;;;;;9.25;5.22;;;6.50;99.90;;;;;;4973825;28;20457;-77
2023/04/26 02:36:45;;;;;;;9.38;5.38;;;6.50;99.90;;;;;;4972997;28;20034;-77
2023/04/26 02:39:11;;;;;;;9.45;4.95;;;6.50;99.90;;;;;;4971876;28;20027;-76
2023/04/26 02:41:36;;;;;;;9.05;5.03;;;6.30;99.90;;;;;;4973102;28;20031;-76
2023/04/26 02:44:02;;;;;;;9.00;5.43;;;6.40;99.90;;;;;;4988560;28;20031;-75
2023/04/26 02:46:27;;;;;;;8.27;4.93;;;6.40;99.90;;;;;;4973644;28;20035;-75
2023/04/26 02:48:53;;;;;;;8.43;4.73;;;6.30;99.90;;;;;;4972584;28;20047;-75
2023/04/26 02:51:19;;;;;;;8.73;5.27;;;6.30;99.90;;;;;;4973395;28;20100;-75
2023/04/26 02:53:44;;;;;;;9.10;4.90;;;6.30;99.90;;;;;;4972850;28;20124;-74
2023/04/26 02:56:10;;;;;;;9.77;5.20;;;6.30;99.90;;;;;;4972316;28;20456;-74
2023/04/26 02:58:35;;;;;;;9.73;5.17;;;6.30;99.90;;;;;;4971478;28;20035;-74
2023/04/26 03:01:02;;;;;;;7.60;4.73;;;6.20;99.90;;;;;;4973447;28;20034;-74
2023/04/26 03:03:29;;;;;;;6.78;4.43;;;6.00;99.90;;;;;;4972326;28;20038;-75
2023/04/26 03:05:55;;;;;;;7.43;4.60;;;6.00;99.90;;;;;;4971504;28;20082;-74
2023/04/26 03:08:20;;;;;;;11.67;4.87;;;5.90;99.90;;;;;;4972336;28;20054;-75
2023/04/26 03:10:46;;;;;;;11.80;5.70;;;5.90;99.90;;;;;;4972510;28;20042;-75
2023/04/26 03:13:12;;;;;;;10.23;5.20;;;5.90;99.90;;;;;;4973443;28;20031;-74
2023/04/26 03:15:37;;;;;;;10.90;4.93;;;5.90;99.90;;;;;;4972815;28;20078;-74
2023/04/26 03:18:03;;;;;;;7.37;4.47;;;5.80;99.90;;;;;;4973316;28;20118;-75
2023/04/26 03:20:29;;;;;;;10.03;5.30;;;5.80;99.90;;;;;;4973394;28;20027;-75
2023/04/26 03:22:54;;;;;;;7.67;4.07;;;5.80;99.90;;;;;;4972279;28;20054;-74
2023/04/26 03:25:20;;;;;;;8.50;4.67;;;5.80;99.90;;;;;;4972080;28;20460;-75
2023/04/26 03:27:46;;;;;;;9.50;5.03;;;5.80;99.90;;;;;;4987438;28;20023;-74
2023/04/26 03:30:12;;;;;;;8.50;4.13;;;5.80;99.90;;;;;;4971936;28;20027;-75
2023/04/26 03:32:37;;;;;;;9.33;5.00;;;5.80;99.90;;;;;;4971201;28;20042;-74
2023/04/26 03:35:03;;;;;;;8.47;4.73;;;5.60;99.90;;;;;;4972022;28;20392;-74
2023/04/26 03:37:30;;;;;;;8.27;4.70;;;5.60;99.90;;;;;;4971805;28;20026;-75
2023/04/26 03:39:56;;;;;;;7.63;4.97;;;5.60;99.90;;;;;;4972272;28;20674;-74
2023/04/26 03:42:21;;;;;;;9.97;4.70;;;5.60;99.90;;;;;;4972941;28;20058;-75
2023/04/26 03:44:47;;;;;;;9.70;5.10;;;5.70;99.90;;;;;;4971145;28;20047;-74
2023/04/26 03:47:14;;;;;;;8.43;4.90;;;5.70;99.90;;;;;;4972973;28;20064;-75
2023/04/26 03:49:40;;;;;;;9.50;4.37;;;5.60;99.90;;;;;;4973704;28;20078;-74
2023/04/26 03:52:06;;;;;;;9.20;3.93;;;5.60;99.90;;;;;;4975342;28;20121;-75
2023/04/26 03:54:32;;;;;;;7.43;4.23;;;5.50;99.90;;;;;;4975298;28;20130;-74
2023/04/26 03:56:58;;;;;;;6.30;3.90;;;5.50;99.90;;;;;;4974622;28;20782;-75
2023/04/26 03:59:24;;;;;;;6.70;3.97;;;5.50;99.90;;;;;;4976482;28;20465;-75
2023/04/26 04:01:49;;;;;;;10.87;4.60;;;5.40;99.90;;;;;;4975564;28;20523;-74
2023/04/26 04:04:15;;;;;;;6.77;3.97;;;5.30;99.90;;;;;;4976375;28;20042;-74
2023/04/26 04:06:41;;;;;;;9.53;4.03;;;5.20;99.90;;;;;;4974751;28;20069;-77
2023/04/26 04:09:07;;;;;;;8.17;4.50;;;5.30;99.90;;;;;;4975618;28;20027;-75
2023/04/26 04:11:33;;;;;;;7.77;3.83;;;5.30;99.90;;;;;;4975996;28;20588;-75
2023/04/26 04:13:59;;;;;;;6.83;3.80;;;5.30;99.90;;;;;;4974080;28;20041;-75
2023/04/26 04:16:24;;;;;;;7.30;4.20;;;5.30;99.90;;;;;;4975004;28;20027;-75
2023/04/26 04:18:50;;;;;;;5.87;3.73;;;5.30;99.90;;;;;;4990485;28;20031;-75
2023/04/26 04:21:16;;;;;;;8.97;3.90;;;5.30;99.90;;;;;;4974865;28;20035;-75
2023/04/26 04:23:43;;;;;;;10.97;3.90;;;5.30;99.90;;;;;;4990074;28;20058;-74
2023/04/26 04:26:08;;;;;;;7.47;4.13;;;5.40;99.90;;;;;;4974848;28;20034;-75
2023/04/26 04:28:34;;;;;;;7.27;4.20;;;5.30;99.90;;;;;;4975952;28;20026;-75
2023/04/26 04:31:00;;;;;;;6.87;4.10;;;5.20;99.90;;;;;;4973790;28;20062;-75
2023/04/26 04:33:27;;;;;;;8.17;4.17;;;5.20;99.90;;;;;;4975872;28;20023;-75
2023/04/26 04:35:53;;;;;;;10.93;4.73;;;5.10;99.90;;;;;;4973782;28;20063;-75
2023/04/26 04:38:19;;;;;;;10.40;4.37;;;4.90;99.90;;;;;;4975831;28;20025;-75
2023/04/26 04:40:48;;;;;;;8.73;4.80;;;4.90;99.90;;;;;;4973668;28;20379;-75
2023/04/26 04:43:15;;;;;;;7.80;4.23;;;4.80;99.90;;;;;;4975527;28;20110;-75
2023/04/26 04:45:41;;;;;;;10.73;4.63;;;4.80;99.90;;;;;;4975293;28;20086;-75
2023/04/26 04:48:07;;;;;;;6.97;4.40;;;4.90;99.90;;;;;;4975600;28;20054;-75
2023/04/26 04:50:34;;;;;;;9.17;4.30;;;4.90;99.90;;;;;;4975351;28;20022;-75
2023/04/26 04:53:02;;;;;;;8.60;4.33;;;5.00;99.90;;;;;;4974744;28;20034;-75
2023/04/26 04:55:28;;;;;;;10.60;4.77;;;5.00;99.90;;;;;;4974359;28;20031;-75
2023/04/26 04:57:53;;;;;;;7.63;4.13;;;5.00;99.90;;;;;;4973497;28;20045;-75
2023/04/26 05:00:20;;;;;;;7.30;4.20;;;5.00;99.90;;;;;;4990349;28;20034;-75
2023/04/26 05:02:45;;;;;;;7.63;4.13;;;5.10;99.90;;;;;;4973125;28;20379;-76
2023/04/26 05:05:11;;;;;;;7.33;4.13;;;5.10;99.90;;;;;;4974064;28;20126;-75
2023/04/26 05:07:36;;;;;;;7.67;3.80;;;5.10;99.90;;;;;;4974179;28;20026;-75
2023/04/26 05:10:02;;;;;;;6.40;4.03;;;5.10;99.90;;;;;;4973339;28;20874;-75
2023/04/26 05:12:28;;;;;;;6.23;3.83;;;5.00;99.90;;;;;;4975297;28;20113;-75
2023/04/26 05:14:54;;;;;;;5.10;3.57;;;5.10;99.90;;;;;;4973150;28;20042;-75
2023/04/26 05:17:19;;;;;;;6.50;3.80;;;5.10;99.90;;;;;;4975011;28;20499;-75
2023/04/26 05:19:46;;;;;;;10.20;3.93;;;5.20;99.90;;;;;;4973065;28;20030;-75
2023/04/26 05:22:17;;;;;;;6.97;3.93;;;5.30;99.90;;;;;;4973869;28;20041;-75
2023/04/26 05:24:46;;;;;;;8.02;3.90;;;5.30;99.90;;;;;;4973402;28;20118;-75
2023/04/26 05:27:12;;;;;;;8.53;4.20;;;5.30;99.90;;;;;;4973646;28;20026;-75
2023/04/26 05:29:37;;;;;;;8.57;4.47;;;5.20;99.90;;;;;;4973549;28;20078;-75
2023/04/26 05:32:03;;;;;;;9.83;4.10;;;5.20;99.90;;;;;;4972475;28;20126;-75
2023/04/26 05:34:29;;;;;;;10.13;4.60;;;5.30;99.90;;;;;;4973477;28;20031;-75
2023/04/26 05:36:55;;;;;;;7.33;4.40;;;5.30;99.90;;;;;;4972766;28;20092;-75
2023/04/26 05:39:20;;;;;;;8.30;4.33;;;5.30;99.90;;;;;;4974812;28;20408;-75
2023/04/26 05:41:46;;;;;;;11.03;4.87;;;5.40;99.90;;;;;;4988762;28;20495;-74
2023/04/26 05:44:13;;;;;;;10.33;5.20;;;5.40;99.90;;;;;;4974569;28;20039;-75
2023/04/26 05:46:39;;;;;;;7.90;4.53;;;5.50;99.90;;;;;;4974190;28;20479;-75
2023/04/26 05:49:05;;;;;;;9.67;5.20;;;5.50;99.90;;;;;;4973787;28;20046;-75
2023/04/26 05:51:30;;;;;;;11.20;4.93;;;5.60;99.90;;;;;;4974468;28;20170;-75
2023/04/26 05:53:56;;;;;;;8.80;4.73;;;5.70;99.90;;;;;;4973667;28;20113;-75
2023/04/26 05:56:25;;;;;;;11.10;5.07;;;5.80;99.90;;;;;;4974429;28;20031;-75
2023/04/26 05:58:52;;;;;;;8.17;5.07;;;5.90;99.90;;;;;;4973695;28;20022;-75
2023/04/26 06:01:17;;;;;;;8.23;4.80;;;5.90;99.90;;;;;;4974235;28;20034;-75
2023/04/26 06:03:46;;;;;;;8.20;5.17;;;6.00;99.90;;;;;;4974042;28;20030;-74
2023/04/26 06:06:12;;;;;;;8.13;4.77;;;6.00;99.90;;;;;;4972974;28;20026;-75
2023/04/26 06:08:37;;;;;;;9.47;4.80;;;6.10;99.90;;;;;;4974245;28;20031;-75
2023/04/26 06:11:04;;;;;;;10.07;4.97;;;6.10;99.90;;;;;;4973184;28;20115;-75
2023/04/26 06:13:30;;;;;;;13.80;5.10;;;6.10;99.90;;;;;;4972120;28;20117;-75
2023/04/26 06:15:55;;;;;;;8.17;4.10;;;6.20;99.90;;;;;;4972127;28;20054;-75
2023/04/26 06:18:21;;;;;;;10.23;4.30;;;6.30;99.90;;;;;;4974116;28;20396;-75
2023/04/26 06:20:47;;;;;;;8.97;4.63;;;6.30;99.90;;;;;;4983948;28;20038;-75
2023/04/26 06:23:12;;;;;;;16.43;8.37;;;6.40;99.90;;;;;;4992674;28;20030;-75
2023/04/26 06:25:43;;;;;;;6.93;4.43;;;6.40;99.90;;;;;;4991989;28;20022;-76
2023/04/26 06:28:09;;;;;;;7.63;3.63;;;6.50;99.90;;;;;;4991342;28;20041;-75
2023/04/26 06:30:34;;;;;;;6.07;3.77;;;6.50;99.90;;;;;;4992824;28;20531;-75
2023/04/26 06:33:03;;;;;;;10.17;4.13;;;6.60;99.90;;;;;;4991212;28;20030;-75
2023/04/26 06:35:28;;;;;;;5.70;3.73;;;6.60;99.90;;;;;;4993045;28;20058;-76
2023/04/26 06:37:54;;;;;;;8.63;4.30;;;6.60;99.90;;;;;;4992383;28;20369;-75
2023/04/26 06:40:20;;;;;;;13.23;4.13;;;6.60;99.90;;;;;;4992939;28;20357;-75
2023/04/26 06:42:46;;;;;;;8.23;3.80;;;6.70;99.90;;;;;;4992988;28;20080;-75
2023/04/26 06:45:12;;;;;;;8.27;4.40;;;6.70;99.90;;;;;;4991471;28;20180;-75
2023/04/26 06:47:38;;;;;;;7.30;4.15;;;6.70;99.90;;;;;;4992902;28;20061;-75
2023/04/26 06:50:04;;;;;;;11.48;4.72;;;6.80;99.90;;;;;;4990895;28;20030;-76
2023/04/26 06:52:30;;;;;;;11.20;4.10;;;6.80;99.90;;;;;;4991953;28;20054;-76
2023/04/26 06:54:56;;;;;;;8.20;3.87;;;6.80;99.90;;;;;;4990974;28;20070;-75
2023/04/26 06:57:22;;;;;;;8.50;4.30;;;6.90;99.90;;;;;;4993159;28;20033;-75
2023/04/26 06:59:47;;;;;;;8.38;3.90;;;7.00;99.90;;;;;;4992581;28;20030;-75
2023/04/26 07:02:13;;;;;;;7.38;4.20;;;7.00;99.90;;;;;;4991302;28;20456;-75
2023/04/26 07:04:39;;;;;;;10.65;4.15;;;7.00;99.90;;;;;;4992448;28;20026;-76
2023/04/26 07:07:04;;;;;;;8.45;3.80;;;7.10;99.90;;;;;;4991651;28;20472;-76
2023/04/26 07:09:30;;;;;;;9.17;4.07;;;7.10;99.90;;;;;;4991330;28;20031;-75
2023/04/26 07:11:56;;;;;;;6.07;3.60;;;7.10;99.90;;;;;;4990717;28;20085;-75
2023/04/26 07:14:22;;;;;;;8.20;3.97;;;7.20;99.90;;;;;;4991676;28;20432;-75
2023/04/26 07:16:48;;;;;;;8.60;3.92;;;7.30;99.90;;;;;;4981196;28;20054;-74
2023/04/26 07:19:13;;;;;;;9.57;4.05;;;7.30;99.90;;;;;;4971753;28;20073;-76
2023/04/26 07:21:39;;;;;;;8.65;4.05;;;7.30;99.90;;;;;;4971780;28;20366;-76
2023/04/26 07:24:05;;;;;;;7.18;3.85;;;7.40;99.90;;;;;;4973453;28;20035;-76
2023/04/26 07:26:31;;;;;;;7.30;3.55;;;7.40;99.90;;;;;;4977348;28;20023;-74
2023/04/26 07:28:56;;;;;;;8.13;3.67;;;7.50;99.90;;;;;;4976311;28;20424;-74
2023/04/26 07:31:22;;;;;;;8.35;4.00;;;7.50;99.90;;;;;;4975594;28;20354;-74
2023/04/26 07:33:47;;;;;;;7.72;3.80;;;7.50;99.90;;;;;;4976682;28;20464;-74
2023/04/26 07:36:13;;;;;;;4.82;3.45;;;7.60;99.90;;;;;;4974912;28;20026;-74
2023/04/26 07:38:39;;;;;;;6.75;3.63;;;7.50;99.90;;;;;;4975412;28;20023;-74
2023/04/26 07:41:05;;;;;;;7.75;4.10;;;7.60;99.90;;;;;;4976280;28;20041;-74
2023/04/26 07:43:30;;;;;;;10.60;3.10;;;7.60;99.90;;;;;;4991814;28;20162;-74
2023/04/26 07:46:00;;;;;;;7.40;3.75;;;7.70;99.90;;;;;;4989651;28;20097;-74
2023/04/26 07:48:26;;;;;;;10.52;3.30;;;7.70;99.90;;;;;;4996003;28;20061;-74
2023/04/26 07:50:52;;;;;;;8.93;3.72;;;7.80;99.90;;;;;;4994096;28;20031;-73
2023/04/26 07:53:18;;;;;;;10.60;3.33;;;7.80;99.90;;;;;;4994839;28;20030;-75
2023/04/26 07:55:43;;;;;;;10.65;4.43;;;7.80;99.90;;;;;;4996069;28;20031;-75
2023/04/26 07:58:13;;;;;;;10.68;3.55;;;7.80;99.90;;;;;;5010019;28;20223;-74
2023/04/26 08:00:41;;;;;;;9.35;3.58;;;7.90;99.90;;;;;;4995809;28;20080;-75
2023/04/26 08:03:07;;;;;;;8.75;3.20;;;8.00;99.90;;;;;;4994913;28;20048;-75
2023/04/26 08:05:33;;;;;;;7.97;3.58;;;8.00;99.90;;;;;;4995864;28;20436;-75
2023/04/26 08:08:00;;;;;;;5.13;3.00;;;8.00;99.90;;;;;;4995004;28;20404;-74
2023/04/26 08:10:26;;;;;;;9.68;3.25;;;8.20;99.90;;;;;;4995751;28;20030;-75
2023/04/26 08:12:52;;;;;;;6.18;3.53;;;8.20;99.90;;;;;;4993929;28;20487;-74
2023/04/26 08:15:17;;;;;;;5.72;3.10;;;8.20;99.90;;;;;;4992245;28;20034;-74
2023/04/26 08:17:43;;;;;;;8.05;3.28;;;8.30;99.90;;;;;;4996734;28;20097;-75
2023/04/26 08:20:09;;;;;;;6.63;3.05;;;8.30;99.90;;;;;;4993676;28;20030;-75
2023/04/26 08:22:35;;;;;;;6.82;3.08;;;8.30;99.90;;;;;;4995206;28;20015;-75
2023/04/26 08:25:01;;;;;;;7.20;3.50;;;8.30;99.90;;;;;;4992813;28;20053;-74
2023/04/26 08:27:27;;;;;;;9.43;3.35;;;8.40;99.90;;;;;;4995011;28;20537;-74
2023/04/26 08:29:52;;;;;;;6.20;3.50;;;8.50;99.90;;;;;;4994774;28;20026;-74
2023/04/26 08:32:18;;;;;;;5.40;2.80;;;8.50;99.90;;;;;;4993259;28;20088;-75
2023/04/26 08:34:43;;;;;;;8.90;3.08;;;8.70;99.90;;;;;;4994793;28;20034;-75
2023/04/26 08:37:10;;;;;;;4.57;2.67;;;8.70;99.90;;;;;;4991680;28;20026;-74
2023/04/26 08:39:35;;;;;;;5.93;2.63;;;8.70;99.90;;;;;;4994751;28;20053;-75
2023/04/26 08:42:23;;;;;;;4.40;2.70;;;8.80;99.90;;;;;;4992479;28;20117;-74
2023/04/26 08:44:50;;;;;;;5.13;2.60;;;8.80;99.90;;;;;;4990262;28;20065;-75
2023/04/26 08:47:17;;;;;;;11.30;3.20;;;8.90;99.90;;;;;;4993700;28;20058;-74
2023/04/26 08:49:51;;;;;;;4.60;2.22;;;9.10;99.90;;;;;;4993528;28;20030;-74
2023/04/26 08:52:21;;;;;;;6.90;2.60;;;9.10;99.90;;;;;;4992782;28;20034;-74
2023/04/26 08:54:49;;;;;;;5.80;3.20;;;9.20;99.90;;;;;;4993025;28;20034;-75
2023/04/26 08:57:15;;;;;;;7.40;2.80;;;9.30;99.90;;;;;;4992333;28;20037;-75
2023/04/26 08:59:43;;;;;;;8.45;2.85;;;9.30;99.90;;;;;;4994542;28;20022;-74
2023/04/26 09:02:12;;;;;;;6.32;2.90;;;9.50;99.90;;;;;;4992506;28;20037;-74
2023/04/26 09:04:39;;;;;;;6.15;2.55;;;9.50;99.90;;;;;;4992912;28;20048;-74
2023/04/26 09:07:06;;;;;;;5.25;2.60;;;9.70;99.90;;;;;;4993630;28;20045;-74
2023/04/26 09:09:40;;;;;;;5.20;2.60;;;9.70;99.90;;;;;;4993896;28;20022;-75
2023/04/26 09:12:07;;;;;;;4.40;2.50;;;9.80;99.90;;;;;;4993638;28;20065;-74
2023/04/26 09:14:33;;;;;;;5.85;2.50;;;9.70;99.90;;;;;;4993590;28;20084;-75
2023/04/26 09:16:59;;;;;;;6.55;2.78;;;9.70;99.90;;;;;;4992111;28;20034;-74
2023/04/26 09:19:41;;;;;;;5.30;2.25;;;9.80;99.90;;;;;;4992811;28;20031;-74
2023/04/26 09:22:07;;;;;;;8.48;2.80;;;9.80;99.90;;;;;;4992054;28;20041;-74
2023/04/26 09:24:51;;;;;;;6.97;2.30;;;9.90;99.90;;;;;;4993450;28;20085;-74
2023/04/26 09:27:20;;;;;;;4.63;2.50;;;10.00;99.90;;;;;;4991070;28;20034;-75
2023/04/26 09:30:08;;;;;;;7.60;3.05;;;10.10;99.90;;;;;;4993963;28;20022;-74
2023/04/26 09:32:44;;;;;;;6.28;2.38;;;10.20;99.90;;;;;;4993892;28;20236;-75
2023/04/26 09:35:28;;;;;;;6.85;2.72;;;10.30;99.90;;;;;;4993363;28;20491;-75
2023/04/26 09:38:02;;;;;;;6.30;2.60;;;10.40;99.90;;;;;;4992296;28;20026;-75
2023/04/26 09:40:37;;;;;;;4.22;2.60;;;10.40;99.90;;;;;;4993094;28;20034;-76
2023/04/26 09:43:10;;;;;;;6.85;2.30;;;10.30;99.90;;;;;;4993478;28;20464;-76
2023/04/26 09:45:45;;;;;;;6.15;2.15;;;10.30;99.90;;;;;;5002280;28;20092;-76
2023/04/26 09:48:29;;;;;;;3.38;2.15;;;10.30;99.90;;;;;;4992118;28;20491;-75
2023/04/26 09:51:15;;;;;;;6.75;2.25;;;10.30;99.90;;;;;;4993113;28;20472;-75
2023/04/26 09:53:45;;;;;;;6.00;1.85;;;10.20;99.90;;;;;;4993713;28;20488;-75
2023/04/26 09:56:13;;;;;;;4.93;2.40;;;10.20;99.90;;;;;;4991619;28;20030;-76
2023/04/26 09:59:06;;;;;;;5.22;2.13;;;10.40;99.90;;;;;;4992708;28;20026;-75
2023/04/26 10:01:32;;;;;;;6.43;2.17;;;10.60;99.90;;;;;;4994029;28;20073;-75
2023/04/26 10:04:03;;;;;;;6.75;2.15;;;10.70;99.90;;;;;;4993220;28;20026;-75
2023/04/26 10:06:29;;;;;;;5.50;1.98;;;10.80;99.90;;;;;;4992756;28;20022;-75
2023/04/26 10:08:55;;;;;;;6.78;2.35;;;10.80;99.90;;;;;;4992743;28;20431;-76
2023/04/26 10:11:22;;;;;;;5.25;2.35;;;10.90;99.90;;;;;;4992251;28;20491;-75
2023/04/26 10:13:50;;;;;;;5.43;2.25;;;11.10;99.90;;;;;;4992463;28;20030;-76
2023/04/26 10:16:16;;;;;;;6.85;2.55;;;11.20;99.90;;;;;;4992999;28;20035;-75
2023/04/26 10:18:41;;;;;;;4.57;1.90;;;11.30;99.90;;;;;;4992410;28;20033;-76
2023/04/26 10:21:18;;;;;;;4.90;2.25;;;11.40;98.50;;;;;;4991898;28;20026;-75
2023/04/26 10:23:44;;;;;;;7.43;2.00;;;11.50;99.00;;;;;;4992394;28;20038;-75
2023/04/26 10:26:48;;;;;;;3.42;1.70;;;11.60;98.60;;;;;;4992981;28;20133;-75
2023/04/26 10:29:14;;;;;;;6.65;2.00;;;11.50;96.80;;;;;;4991652;28;20575;-75
2023/04/26 10:32:04;;;;;;;3.08;1.75;;;11.60;98.90;;;;;;4993524;28;20073;-76
2023/04/26 10:34:35;;;;;;;5.60;2.13;;;11.80;98.70;;;;;;4992400;28;20033;-75
2023/04/26 10:37:13;;;;;;;4.40;1.98;;;11.90;99.00;;;;;;4993034;28;20018;-75
2023/04/26 10:39:40;;;;;;;5.05;2.17;;;12.10;99.70;;;;;;4993136;28;20033;-76
2023/04/26 10:42:21;;;;;;;7.00;2.15;;;12.20;96.00;;;;;;4992949;28;20137;-76
2023/04/26 10:44:48;;;;;;;3.20;1.85;;;12.30;91.90;;;;;;4993409;28;20065;-76
2023/04/26 10:47:28;;;;;;;4.30;2.40;;;12.50;90.90;;;;;;4992542;28;20383;-77
2023/04/26 10:50:10;;;;;;;7.13;1.77;;;12.60;92.20;;;;;;4992299;28;20041;-78
2023/04/26 10:53:04;;;;;;;4.32;2.15;;;12.60;87.90;;;;;;4993450;28;20041;-76
2023/04/26 10:55:41;;;;;;;4.53;1.90;;;12.60;90.80;;;;;;4987534;28;20104;-74
2023/04/26 10:58:30;;;;;;;5.30;2.00;;;12.40;90.30;;;;;;4992760;28;20423;-74
2023/04/26 11:01:03;;;;;;;6.50;2.25;;;12.50;86.20;;;;;;4998457;28;20042;-74
2023/04/26 11:03:29;;;;;;;7.32;1.90;;;12.60;85.70;;;;;;4999325;28;20398;-74
2023/04/26 11:05:56;;;;;;;5.10;1.75;;;12.70;86.60;;;;;;4999665;28;20018;-75
2023/04/26 11:08:26;;;;;;;6.05;2.67;;;12.80;86.10;;;;;;4999042;28;20026;-74
2023/04/26 11:10:57;;;;;;;5.35;1.70;;;12.70;84.80;;;;;;4999373;28;20038;-74
2023/04/26 11:13:22;;;;;;;10.55;6.07;;;12.60;84.50;;;;;;4999363;28;20393;-76
2023/04/26 11:15:53;;;;;;;5.20;2.80;;;12.60;83.80;;;;;;4999307;28;20502;-74
2023/04/26 11:18:20;;;;;;;3.63;2.05;;;12.60;83.20;;;;;;4997705;28;20065;-74
2023/04/26 11:20:45;;;;;;;8.88;1.98;;;12.70;86.80;;;;;;4997860;28;20030;-74
2023/04/26 11:23:11;;;;;;;4.55;2.05;;;12.70;85.20;;;;;;4998820;28;20080;-74
2023/04/26 11:25:38;;;;;;;5.72;2.35;;;12.80;84.40;;;;;;4999514;28;20486;-75
2023/04/26 11:28:04;;;;;;;4.85;2.47;;;12.80;87.50;;;;;;4998819;28;20068;-74
2023/04/26 11:30:31;;;;;;;5.78;1.70;;;12.80;86.20;;;;;;4999242;28;20038;-74
2023/04/26 11:32:59;;;;;;;6.35;2.00;;;12.80;86.10;;;;;;4999398;28;20089;-74
2023/04/26 11:35:25;;;;;;;5.97;2.00;;;12.90;84.30;;;;;;4998781;28;20066;-74
2023/04/26 11:37:51;;;;;;;3.75;1.85;;;12.90;84.10;;;;;;4998067;28;20459;-74
2023/04/26 11:40:17;;;;;;;6.20;2.10;;;13.00;84.10;;;;;;4998715;28;20060;-75
2023/04/26 11:42:46;;;;;;;4.25;2.03;;;13.00;81.40;;;;;;4997862;28;20027;-74
2023/04/26 11:45:15;;;;;;;4.53;2.33;;;13.10;85.90;;;;;;4998732;28;20031;-74
2023/04/26 11:47:41;;;;;;;4.57;2.00;;;13.30;86.10;;;;;;4999069;28;20050;-74
2023/04/26 11:50:08;;;;;;;3.15;1.90;;;13.40;86.00;;;;;;4997209;28;20027;-74
2023/04/26 11:52:34;;;;;;;4.20;1.88;;;13.40;82.40;;;;;;4999272;28;20471;-74
2023/04/26 11:55:03;;;;;;;5.32;2.30;;;13.30;81.00;;;;;;4999336;28;20455;-74
2023/04/26 11:57:31;;;;;;;5.50;1.65;;;13.40;79.30;;;;;;4999095;28;20029;-74
2023/04/26 12:00:13;;;;;;;4.63;1.70;;;13.60;79.40;;;;;;4999081;28;20471;-74
2023/04/26 12:02:49;;;;;;;3.60;2.15;;;13.70;77.20;;;;;;4998032;28;20030;-74
2023/04/26 12:05:32;;;;;;;4.20;2.20;;;13.80;77.70;;;;;;4997247;28;20495;-74
2023/04/26 12:07:59;;;;;;;5.93;2.20;;;13.80;74.40;;;;;;4999247;28;20026;-74
2023/04/26 12:10:26;;;;;;;7.43;2.35;;;13.80;74.30;;;;;;4997374;28;20169;-74
2023/04/26 12:12:56;;;;;;;6.35;2.40;;;14.10;75.00;;;;;;4995577;28;20025;-74
2023/04/26 12:15:24;;;;;;;3.08;1.80;;;14.30;79.40;;;;;;4994076;28;20038;-75
2023/04/26 12:18:05;;;;;;;4.15;1.92;;;14.30;75.30;;;;;;4994289;28;20030;-74
2023/04/26 12:20:35;;;;;;;4.70;1.38;;;14.20;74.70;;;;;;4995950;28;20030;-75
2023/04/26 12:23:05;;;;;;;3.80;1.75;;;14.30;75.40;;;;;;4994554;28;20033;-75
2023/04/26 12:25:36;;;;;;;4.65;2.47;;;14.40;77.90;;;;;;4995748;28;20023;-75
2023/04/26 12:28:04;;;;;;;3.53;1.42;;;14.40;75.90;;;;;;4995988;28;20029;-75
2023/04/26 12:30:30;;;;;;;4.95;1.50;;;14.40;75.40;;;;;;4995588;28;20034;-75
2023/04/26 12:32:56;;;;;;;5.05;1.92;;;14.50;75.90;;;;;;4994258;28;20031;-75
2023/04/26 12:35:25;;;;;;;4.32;2.13;;;14.70;74.80;;;;;;4995298;28;20384;-75
2023/04/26 12:37:55;;;;;;;5.28;1.90;;;14.70;77.20;;;;;;4994275;28;20023;-75
2023/04/26 12:40:22;;;;;;;3.67;1.75;;;14.60;74.50;;;;;;4993635;28;20031;-75
2023/04/26 12:42:48;;;;;;;3.78;1.80;;;14.80;74.60;;;;;;4993757;28;20369;-75
2023/04/26 12:45:14;;;;;;;5.97;1.77;;;15.00;78.20;;;;;;4994475;28;20034;-75
2023/04/26 12:47:40;;;;;;;4.38;2.00;;;15.10;78.20;;;;;;4994944;28;20054;-75
2023/04/26 12:50:06;;;;;;;5.40;1.98;;;15.10;79.90;;;;;;4995058;28;20121;-76
2023/04/26 12:52:32;;;;;;;3.97;2.10;;;15.10;78.10;;;;;;4994216;28;20045;-75
2023/04/26 12:54:58;;;;;;;5.20;2.00;;;15.20;79.60;;;;;;4995152;28;20030;-75